Time;durP1;ratioP1;P1;durP2;ratioP2;P2;SDS_P1;SDS_P2;PMS_P1;PMS_P2;Temp;Humidity;BMP_temperature;BMP_pressure;BME280_temperature;BME280_humidity;BME280_pressure;Samples;Min_cycle;Max_cycle;Signal;HPM_P1;HPM_P2
2021/07/28 00:00:15;;;;;;;28.85;16.52;;;;;;;22.21;77.84;99979.72;1753571;81;21040;-82
2021/07/28 00:02:42;;;;;;;36.30;19.57;;;;;;;22.14;79.19;99967.81;1756914;80;21076;-81
2021/07/28 00:05:10;;;;;;;20.25;13.65;;;;;;;22.11;79.87;99969.39;1784439;80;21055;-81
2021/07/28 00:07:38;;;;;;;27.15;14.78;;;;;;;22.07;79.96;99970.67;1784420;80;21132;-80
2021/07/28 00:10:06;;;;;;;24.52;16.45;;;;;;;22.04;80.30;99972.27;1776278;80;21392;-79
2021/07/28 00:12:33;;;;;;;26.87;16.93;;;;;;;22.01;81.11;99968.02;1755347;80;20994;-81
2021/07/28 00:15:00;;;;;;;22.52;13.98;;;;;;;21.97;80.34;99956.73;1780694;80;21041;-78
2021/07/28 00:17:28;;;;;;;27.70;14.73;;;;;;;21.94;78.96;99970.38;1780323;80;21089;-79
2021/07/28 00:20:10;;;;;;;25.68;16.52;;;;;;;21.91;80.65;99967.98;1780083;80;21457;-78
2021/07/28 00:25:25;;;;;;;31.12;16.90;;;;;;;21.85;84.07;99976.55;1781302;80;20973;-78
2021/07/28 00:27:52;;;;;;;29.92;17.75;;;;;;;21.76;84.45;99976.88;1781005;80;21025;-79
2021/07/28 00:30:19;;;;;;;24.80;17.15;;;;;;;21.73;85.54;99980.30;1781771;80;21064;-77
2021/07/28 00:32:46;;;;;;;31.10;18.10;;;;;;;21.69;84.59;99972.16;1781447;80;21102;-79
2021/07/28 00:35:13;;;;;;;25.00;17.70;;;;;;;21.65;85.28;99966.70;1781265;80;21012;-77
2021/07/28 00:37:40;;;;;;;31.73;18.50;;;;;;;21.60;84.23;99970.27;1781369;80;21256;-78
2021/07/28 00:40:08;;;;;;;24.23;14.83;;;;;;;21.54;84.40;99963.12;1781607;80;21005;-77
2021/07/28 00:42:35;;;;;;;22.87;15.23;;;;;;;21.48;84.59;99971.67;1780757;80;20970;-74
2021/07/28 00:45:02;;;;;;;25.72;15.40;;;;;;;21.45;83.58;99971.94;1750043;82;22081;-76
2021/07/28 00:47:29;;;;;;;23.47;15.03;;;;;;;21.41;83.59;99970.50;1749450;82;20997;-75
2021/07/28 00:50:00;;;;;;;26.30;14.90;;;;;;;21.42;83.64;99960.16;1749435;82;21096;-77
2021/07/28 00:52:29;;;;;;;26.55;16.62;;;;;;;21.40;82.49;99960.78;1750057;82;21580;-77
2021/07/28 00:54:56;;;;;;;27.00;17.10;;;;;;;21.39;82.70;99973.76;1748430;82;21095;-78
2021/07/28 00:57:23;;;;;;;31.87;16.82;;;;;;;21.35;84.76;99976.36;1748187;82;21097;-82
2021/07/28 00:59:51;;;;;;;28.38;17.75;;;;;;;21.30;85.01;99975.88;1747651;82;21555;-82
2021/07/28 01:02:18;;;;;;;27.02;17.60;;;;;;;21.28;84.35;99975.16;1747761;82;21025;-80
2021/07/28 01:04:46;;;;;;;27.42;16.90;;;;;;;21.26;84.48;99973.97;1747510;82;21052;-80
2021/07/28 01:07:13;;;;;;;25.62;16.97;;;;;;;21.25;86.45;99975.42;1747489;82;21571;-79
2021/07/28 01:09:40;;;;;;;25.45;17.00;;;;;;;21.25;86.99;99979.44;1747437;80;21210;-79
2021/07/28 01:12:08;;;;;;;23.95;16.40;;;;;;;21.24;85.54;99974.58;1747029;82;21056;-78
2021/07/28 01:14:35;;;;;;;25.75;15.48;;;;;;;21.26;85.87;99979.81;1747389;82;21036;-78
2021/07/28 01:17:02;;;;;;;23.75;15.68;;;;;;;21.28;85.51;99979.17;1747107;82;21648;-78
2021/07/28 01:19:30;;;;;;;29.72;17.50;;;;;;;21.28;84.81;99979.17;1750265;80;21054;-78
2021/07/28 01:21:59;;;;;;;28.77;16.40;;;;;;;21.30;84.44;99979.43;1750389;82;21133;-76
2021/07/28 01:24:25;;;;;;;23.70;16.45;;;;;;;21.35;85.97;99976.36;1750260;82;21060;-77
2021/07/28 01:26:54;;;;;;;35.25;18.40;;;;;;;21.38;86.45;99977.43;1749935;82;21075;-76
2021/07/28 01:29:21;;;;;;;30.10;17.25;;;;;;;21.42;88.19;99978.91;1750471;82;21063;-77
2021/07/28 01:31:49;;;;;;;22.05;15.88;;;;;;;21.42;89.19;99984.27;1750102;82;21051;-78
2021/07/28 01:34:16;;;;;;;23.52;16.00;;;;;;;21.43;89.97;99997.16;1749854;81;21164;-76
2021/07/28 01:36:43;;;;;;;27.70;18.30;;;;;;;21.44;89.90;100001.53;1750055;82;21047;-76
2021/07/28 01:39:11;;;;;;;19.90;14.95;;;;;;;21.42;90.59;99999.00;1750113;82;21447;-77
2021/07/28 01:41:38;;;;;;;24.35;16.62;;;;;;;21.37;86.84;100014.55;1748972;80;21579;-75
2021/07/28 01:44:05;;;;;;;34.08;17.60;;;;;;;21.35;86.28;100016.05;1747149;82;21324;-79
2021/07/28 01:46:32;;;;;;;26.90;17.60;;;;;;;21.34;87.22;100002.27;1747514;82;21065;-81
2021/07/28 01:48:59;;;;;;;32.98;19.87;;;;;;;21.33;88.51;99991.71;1747318;82;21044;-79
2021/07/28 01:51:26;;;;;;;29.45;18.98;;;;;;;21.30;89.41;99994.63;1748374;82;21113;-80
2021/07/28 01:53:53;;;;;;;27.45;18.77;;;;;;;21.27;90.01;99984.18;1746680;82;21088;-81
2021/07/28 01:56:20;;;;;;;30.97;18.40;;;;;;;21.24;89.88;99985.30;1747270;82;21100;-81
2021/07/28 01:58:54;;;;;;;27.37;18.92;;;;;;;21.22;89.78;99978.37;1747345;82;21823;-80
2021/07/28 02:01:21;;;;;;;25.97;18.17;;;;;;;21.20;90.70;99977.64;1747522;82;21044;-78
2021/07/28 02:03:48;;;;;;;29.20;18.85;;;;;;;21.16;90.76;99975.23;1747361;82;21543;-76
2021/07/28 02:06:15;;;;;;;22.58;14.78;;;;;;;21.15;90.65;99970.00;1747594;82;21570;-83
2021/07/28 02:08:44;;;;;;;28.12;19.30;;;;;;;21.13;89.75;99970.61;1748924;82;21072;-81
2021/07/28 02:11:11;;;;;;;38.02;18.57;;;;;;;21.14;88.56;99959.78;1749962;81;21436;-80
2021/07/28 02:13:38;;;;;;;27.65;16.05;;;;;;;21.18;88.05;99962.19;1769459;80;21017;-82
2021/07/28 02:16:06;;;;;;;28.62;15.38;;;;;;;21.21;86.55;99951.21;1781367;80;21459;-81
2021/07/28 02:18:33;;;;;;;36.08;17.48;;;;;;;21.21;85.30;99956.56;1780983;80;20946;-83
2021/07/28 02:21:01;;;;;;;23.47;15.45;;;;;;;21.24;85.52;99942.94;1779942;80;21009;-82
2021/07/28 02:23:29;;;;;;;34.95;18.15;;;;;;;21.25;85.26;99940.61;1778701;80;21525;-83
2021/07/28 02:25:56;;;;;;;27.30;16.37;;;;;;;21.28;84.84;99932.30;1779006;80;21089;-80
2021/07/28 02:28:24;;;;;;;29.80;17.17;;;;;;;21.30;85.60;99933.02;1778717;80;21556;-81
2021/07/28 02:30:51;;;;;;;27.22;15.70;;;;;;;21.32;86.60;99936.42;1779449;80;20997;-81
2021/07/28 02:33:19;;;;;;;24.07;16.70;;;;;;;21.30;87.16;99937.05;1778292;80;21553;-81
2021/07/28 02:35:46;;;;;;;28.75;17.00;;;;;;;21.28;85.57;99935.85;1778546;80;21088;-82
2021/07/28 02:38:13;;;;;;;25.62;17.57;;;;;;;21.27;85.05;99933.30;1778221;80;21065;-82
2021/07/28 02:40:41;;;;;;;31.55;16.25;;;;;;;21.28;85.72;99932.30;1778548;80;21095;-82
2021/07/28 02:43:08;;;;;;;32.78;17.25;;;;;;;21.30;85.75;99927.66;1778389;80;21028;-81
2021/07/28 02:45:34;;;;;;;29.67;17.95;;;;;;;21.34;86.61;99922.41;1778712;80;20981;-81
2021/07/28 02:48:05;;;;;;;26.73;17.00;;;;;;;21.36;87.50;99919.96;1777934;80;22159;-80
2021/07/28 02:50:32;;;;;;;28.62;17.07;;;;;;;21.37;88.49;99919.00;1778173;80;21559;-83
2021/07/28 02:52:59;;;;;;;24.30;16.50;;;;;;;21.36;89.32;99921.80;1778161;80;21013;-80
2021/07/28 02:55:26;;;;;;;18.70;10.60;;;;;;;21.35;88.68;99924.97;1778337;80;21028;-81
2021/07/28 02:57:53;;;;;;;21.07;12.95;;;;;;;21.37;88.46;99940.89;1778428;80;21261;-80
2021/07/28 03:00:20;;;;;;;24.23;15.25;;;;;;;21.37;87.78;99954.28;1778618;80;21449;-83
2021/07/28 03:02:50;;;;;;;24.27;17.57;;;;;;;21.41;88.12;99975.86;1776476;80;21572;-83
2021/07/28 03:05:17;;;;;;;22.93;14.87;;;;;;;21.42;89.50;99979.38;1776857;80;21142;-83
2021/07/28 03:07:45;;;;;;;26.93;16.75;;;;;;;21.38;89.51;99968.90;1776385;80;21041;-79
2021/07/28 03:10:13;;;;;;;16.20;9.18;;;;;;;21.37;89.78;99979.73;1776957;80;21105;-78
2021/07/28 03:12:40;;;;;;;29.40;17.92;;;;;;;21.36;87.90;99983.41;1771715;80;21479;-78
2021/07/28 03:15:07;;;;;;;30.52;17.07;;;;;;;21.37;88.61;99974.38;1783831;80;21064;-79
2021/07/28 03:17:34;;;;;;;32.03;18.02;;;;;;;21.33;89.87;99962.25;1784111;80;21044;-77
2021/07/28 03:20:00;;;;;;;32.20;18.37;;;;;;;21.28;90.60;99972.47;1784201;80;21599;-79
2021/07/28 03:22:27;;;;;;;25.50;16.45;;;;;;;21.23;89.79;99979.55;1784080;80;21091;-78
2021/07/28 03:24:54;;;;;;;25.62;16.97;;;;;;;21.24;89.06;99993.33;1784157;80;21478;-76
2021/07/28 03:27:21;;;;;;;27.25;16.90;;;;;;;21.29;89.22;100013.02;1783974;80;22298;-78
2021/07/28 03:29:48;;;;;;;25.77;17.70;;;;;;;21.35;90.95;100033.95;1784165;80;21079;-79
2021/07/28 03:32:15;;;;;;;21.68;16.95;;;;;;;21.38;90.19;100026.98;1783304;80;21045;-77
2021/07/28 03:34:42;;;;;;;24.95;19.02;;;;;;;21.41;90.39;100038.80;1783516;80;21060;-78
2021/07/28 03:37:09;;;;;;;29.50;18.17;;;;;;;21.42;90.77;100043.20;1783328;80;22019;-78
2021/07/28 03:39:36;;;;;;;32.20;18.30;;;;;;;21.43;91.01;100039.53;1783366;80;21092;-79
2021/07/28 03:42:06;;;;;;;33.42;19.05;;;;;;;21.47;90.67;100038.80;1783750;80;21032;-81
2021/07/28 03:44:34;;;;;;;32.78;17.82;;;;;;;21.49;90.99;100032.33;1783838;80;21079;-80
2021/07/28 03:47:00;;;;;;;27.50;18.95;;;;;;;21.47;90.94;100023.56;1783661;80;22233;-82
2021/07/28 03:49:27;;;;;;;29.70;19.62;;;;;;;21.44;89.74;100025.17;1783615;80;21093;-80
2021/07/28 03:51:55;;;;;;;34.35;19.32;;;;;;;21.43;90.39;100030.16;1783469;80;20989;-80
2021/07/28 03:54:22;;;;;;;28.60;19.10;;;;;;;21.44;91.14;100021.16;1783791;80;21579;-81
2021/07/28 03:56:49;;;;;;;25.95;17.82;;;;;;;21.48;91.82;100015.03;1783975;80;21048;-80
2021/07/28 03:59:17;;;;;;;19.57;13.72;;;;;;;21.62;91.60;100019.22;1783980;80;21037;-79
2021/07/28 04:01:44;;;;;;;29.40;17.45;;;;;;;21.69;90.37;100025.26;1767323;80;21466;-78
2021/07/28 04:04:11;;;;;;;29.23;20.15;;;;;;;21.77;90.14;100032.66;1752815;81;21056;-79
2021/07/28 04:06:38;;;;;;;27.93;18.62;;;;;;;21.83;90.99;100024.08;1753289;81;21059;-79
2021/07/28 04:09:05;;;;;;;26.85;17.55;;;;;;;21.89;91.35;100026.24;1753037;81;21571;-80
2021/07/28 04:11:32;;;;;;;30.45;18.65;;;;;;;21.94;90.19;100033.89;1750404;81;21052;-78
2021/07/28 04:13:59;;;;;;;33.78;18.65;;;;;;;22.02;89.51;100034.55;1747055;82;21523;-77
2021/07/28 04:16:26;;;;;;;27.37;17.20;;;;;;;22.04;89.75;100031.25;1747216;82;21556;-78
2021/07/28 04:18:53;;;;;;;25.40;18.48;;;;;;;22.03;88.90;100021.52;1751509;80;21084;-83
2021/07/28 04:21:20;;;;;;;30.92;20.30;;;;;;;22.04;90.03;100026.77;1767688;80;21068;-78
2021/07/28 04:23:48;;;;;;;28.85;18.42;;;;;;;22.05;90.89;100024.92;1759589;80;21067;-79
2021/07/28 04:26:15;;;;;;;33.65;19.48;;;;;;;22.02;90.94;100025.17;1768554;80;21081;-81
2021/07/28 04:28:42;;;;;;;34.10;19.75;;;;;;;21.98;91.40;100012.54;1762459;80;22110;-73
2021/07/28 04:31:08;;;;;;;32.15;19.90;;;;;;;21.87;92.04;99982.62;1738257;80;21071;-76
2021/07/28 04:33:35;;;;;;;32.25;19.65;;;;;;;21.75;92.44;99962.25;1742266;80;21037;-76
2021/07/28 04:36:02;;;;;;;28.67;19.02;;;;;;;21.57;93.15;99945.43;1754078;80;21076;-77
2021/07/28 04:38:29;;;;;;;31.25;15.88;;;;;;;21.44;93.73;99947.48;1750238;80;21489;-76
2021/07/28 04:40:56;;;;;;;23.20;14.40;;;;;;;21.35;92.90;99952.25;1756308;80;21114;-76
2021/07/28 04:43:23;;;;;;;25.55;16.20;;;;;;;21.29;91.78;99942.05;1747688;80;21025;-76
2021/07/28 04:46:02;;;;;;;28.87;15.88;;;;;;;21.26;92.61;99939.15;1755607;80;21075;-77
2021/07/28 04:48:29;;;;;;;26.73;17.75;;;;;;;21.26;90.51;99955.71;1765831;80;21025;-76
2021/07/28 04:50:57;;;;;;;29.02;19.77;;;;;;;21.27;94.05;99976.98;1754991;80;22142;-77
2021/07/28 04:53:30;;;;;;;36.48;20.75;;;;;;;21.21;94.94;99968.62;1751458;80;21076;-78
2021/07/28 04:55:58;;;;;;;27.15;20.35;;;;;;;21.15;96.31;99965.48;1755121;79;21517;-77
2021/07/28 04:58:25;;;;;;;29.63;20.25;;;;;;;21.08;94.99;99958.95;1752279;80;20994;-78
2021/07/28 05:00:52;;;;;;;37.35;20.92;;;;;;;21.09;95.92;99952.59;1769224;80;21048;-78
2021/07/28 05:03:20;;;;;;;30.12;20.65;;;;;;;21.09;95.44;99953.09;1778116;80;21061;-77
2021/07/28 05:05:48;;;;;;;33.45;20.32;;;;;;;21.13;97.47;99945.17;1774050;80;21071;-77
2021/07/28 05:08:15;;;;;;;32.60;20.48;;;;;;;21.14;98.91;99960.24;1726075;83;21550;-77
2021/07/28 05:10:43;;;;;;;36.05;22.48;;;;;;;21.16;99.15;99949.80;1726306;81;21534;-77
2021/07/28 05:13:12;;;;;;;34.15;22.95;;;;;;;21.27;99.99;99944.84;1758119;79;21547;-78
2021/07/28 05:15:41;;;;;;;34.13;22.40;;;;;;;21.38;100.00;99945.28;1766890;79;22014;-77
2021/07/28 05:18:08;;;;;;;33.48;19.05;;;;;;;21.46;100.00;99941.48;1781201;79;21073;-78
2021/07/28 05:20:34;;;;;;;27.50;20.88;;;;;;;21.63;100.00;99944.56;1749520;79;21028;-71
2021/07/28 05:23:03;;;;;;;23.47;15.38;;;;;;;22.03;100.00;99950.47;1760814;79;21080;-72
2021/07/28 05:25:30;;;;;;;22.48;13.43;;;;;;;22.58;98.64;99948.27;1746768;80;21068;-71
2021/07/28 05:27:57;;;;;;;28.83;18.85;;;;;;;23.12;94.48;99940.23;1750896;80;21963;-72
2021/07/28 05:30:25;;;;;;;25.82;17.48;;;;;;;23.71;93.16;99945.49;1760461;80;21135;-72
2021/07/28 05:32:51;;;;;;;27.30;17.37;;;;;;;24.31;89.74;99933.88;1763709;80;21029;-74
2021/07/28 05:35:18;;;;;;;28.00;18.73;;;;;;;24.90;85.84;99934.38;1760795;80;21576;-72
2021/07/28 05:37:45;;;;;;;24.45;17.23;;;;;;;25.38;82.23;99930.94;1763212;80;21079;-72
2021/07/28 05:40:14;;;;;;;31.97;16.23;;;;;;;25.52;79.84;99930.36;1762396;80;21735;-72
2021/07/28 05:42:40;;;;;;;21.35;14.85;;;;;;;25.49;76.92;99930.66;1755805;80;21025;-72
2021/07/28 05:45:08;;;;;;;23.27;14.40;;;;;;;25.44;78.01;99932.98;1760434;79;21323;-71
2021/07/28 05:47:35;;;;;;;22.62;15.65;;;;;;;25.38;76.88;99933.13;1758604;80;21036;-74
2021/07/28 05:50:03;;;;;;;28.62;17.37;;;;;;;25.24;76.91;99921.06;1752779;80;21074;-72
2021/07/28 05:52:31;;;;;;;20.45;15.28;;;;;;;25.12;77.84;99919.56;1763249;80;21129;-72
2021/07/28 05:55:03;;;;;;;27.62;18.17;;;;;;;24.91;79.16;99914.03;1766889;80;21037;-72
2021/07/28 05:57:30;;;;;;;28.00;17.02;;;;;;;24.77;80.34;99917.23;1756422;80;21154;-72
2021/07/28 05:59:57;;;;;;;26.52;15.53;;;;;;;24.73;80.85;99922.58;1756596;80;21049;-72
2021/07/28 06:02:23;;;;;;;29.77;14.78;;;;;;;25.01;78.98;99924.71;1762176;80;21024;-73
2021/07/28 06:04:53;;;;;;;24.87;14.33;;;;;;;25.33;77.30;99921.47;1760922;80;21757;-72
2021/07/28 06:07:20;;;;;;;27.27;12.45;;;;;;;25.66;75.55;99916.28;1757734;80;21187;-72
2021/07/28 06:09:47;;;;;;;25.50;16.27;;;;;;;25.90;73.82;99916.09;1751690;80;21013;-72
2021/07/28 06:12:16;;;;;;;24.92;14.25;;;;;;;25.97;74.38;99910.40;1748352;80;21028;-73
2021/07/28 06:14:44;;;;;;;24.72;14.65;;;;;;;26.20;73.82;99912.52;1752687;80;21060;-71
2021/07/28 06:17:12;;;;;;;23.20;13.68;;;;;;;26.36;73.81;99895.89;1747156;80;21712;-72
2021/07/28 06:19:39;;;;;;;21.25;13.58;;;;;;;26.74;68.92;99909.83;1757797;80;21088;-71
2021/07/28 06:22:06;;;;;;;21.85;13.55;;;;;;;26.94;69.86;99910.37;1753470;80;21100;-72
2021/07/28 06:24:34;;;;;;;22.05;14.23;;;;;;;27.21;67.67;99913.76;1752783;80;22258;-72
2021/07/28 06:27:01;;;;;;;27.67;15.90;;;;;;;27.41;66.55;99916.96;1743001;80;21068;-72
2021/07/28 06:29:28;;;;;;;27.80;15.95;;;;;;;27.56;66.63;99907.14;1749305;80;21079;-72
2021/07/28 06:31:55;;;;;;;23.45;13.90;;;;;;;27.81;65.64;99903.87;1747521;80;21575;-72
2021/07/28 06:34:22;;;;;;;28.17;17.35;;;;;;;28.01;63.72;99898.90;1740677;80;21630;-72
2021/07/28 06:36:49;;;;;;;25.20;16.48;;;;;;;28.29;64.86;99897.59;1747955;80;21014;-71
2021/07/28 06:39:15;;;;;;;27.65;15.28;;;;;;;28.57;62.71;99896.09;1761548;80;21065;-72
2021/07/28 06:41:42;;;;;;;27.22;18.05;;;;;;;28.73;61.34;99891.59;1761583;80;21908;-70
2021/07/28 06:44:10;;;;;;;34.23;18.50;;;;;;;28.86;60.62;99897.26;1744831;80;21618;-71
2021/07/28 06:46:37;;;;;;;30.00;19.17;;;;;;;28.86;59.33;99899.97;1773786;80;21036;-72
2021/07/28 06:49:04;;;;;;;34.08;20.80;;;;;;;28.92;59.22;99899.25;1772588;80;21087;-73
2021/07/28 06:51:31;;;;;;;27.48;15.38;;;;;;;29.05;58.65;99895.91;1747707;80;21473;-74
2021/07/28 06:53:59;;;;;;;23.67;14.68;;;;;;;29.22;56.12;99893.95;1757484;80;21089;-72
2021/07/28 06:56:25;;;;;;;21.68;13.08;;;;;;;29.40;56.66;99895.81;1777529;80;21021;-72
2021/07/28 06:58:53;;;;;;;19.02;11.10;;;;;;;29.54;53.83;99894.63;1769699;80;21077;-73
2021/07/28 07:01:20;;;;;;;24.82;10.65;;;;;;;29.56;54.67;99895.30;1760031;80;21017;-73
2021/07/28 07:03:47;;;;;;;21.20;10.95;;;;;;;29.60;53.50;99896.61;1758080;80;21476;-72
2021/07/28 07:06:14;;;;;;;23.40;12.18;;;;;;;29.52;54.19;99895.33;1746590;82;21050;-71
2021/07/28 07:08:41;;;;;;;20.43;11.18;;;;;;;29.57;54.70;99899.71;1746639;82;22131;-72
2021/07/28 07:11:08;;;;;;;20.85;11.83;;;;;;;29.71;55.09;99908.40;1746764;80;21123;-73
2021/07/28 07:13:37;;;;;;;25.35;11.43;;;;;;;29.73;53.54;99913.12;1752308;81;21048;-72
2021/07/28 07:16:04;;;;;;;21.05;11.70;;;;;;;29.81;53.87;99918.45;1764204;80;21060;-80
2021/07/28 07:18:31;;;;;;;21.00;11.03;;;;;;;29.71;53.95;99913.83;1752890;81;21150;-77
2021/07/28 07:20:58;;;;;;;21.05;11.15;;;;;;;29.82;54.31;99914.72;1756987;80;21079;-76
2021/07/28 07:23:25;;;;;;;25.15;11.25;;;;;;;30.14;53.48;99919.93;1767021;80;21059;-75
2021/07/28 07:25:58;;;;;;;22.77;11.80;;;;;;;30.39;53.66;99920.48;1783348;80;21516;-76
2021/07/28 07:28:21;;;;;;;27.98;11.60;;;;;;;30.74;52.65;99918.80;1770892;80;21490;-77
2021/07/28 07:30:50;;;;;;;22.50;11.18;;;;;;;30.98;50.99;99917.59;1772093;80;21267;-75
2021/07/28 07:36:07;;;;;;;17.60;10.65;;;;;;;31.08;49.24;99920.84;1783921;80;21033;-77
2021/07/28 07:38:35;;;;;;;22.93;10.00;;;;;;;31.10;48.53;99923.34;1784072;80;21096;-76
2021/07/28 07:41:02;;;;;;;26.45;10.72;;;;;;;31.03;49.30;99928.72;1783967;80;21024;-76
2021/07/28 07:43:31;;;;;;;19.98;10.20;;;;;;;31.11;48.00;99923.16;1784092;80;21005;-76
2021/07/28 07:45:58;;;;;;;19.48;9.73;;;;;;;31.12;49.80;99922.11;1780361;80;21072;-76
2021/07/28 07:48:27;;;;;;;16.95;8.85;;;;;;;31.17;49.98;99926.13;1753398;81;21115;-76
2021/07/28 07:50:54;;;;;;;17.35;9.08;;;;;;;31.17;49.98;99926.13;1752741;81;21049;-76
2021/07/28 07:53:20;;;;;;;21.62;10.15;;;;;;;31.14;48.97;99926.00;1739211;80;21079;-75
2021/07/28 07:55:48;;;;;;;17.62;9.40;;;;;;;31.13;49.14;99919.73;1759332;80;21050;-77
2021/07/28 07:58:15;;;;;;;18.90;9.65;;;;;;;31.20;49.21;99916.20;1752410;81;21582;-77
2021/07/28 08:00:42;;;;;;;16.15;9.73;;;;;;;31.23;49.64;99917.20;1765036;80;21056;-75
2021/07/28 08:03:09;;;;;;;17.65;9.48;;;;;;;31.17;49.43;99922.05;1767374;80;21028;-76
2021/07/28 08:05:37;;;;;;;22.77;9.30;;;;;;;31.20;48.69;99917.56;1764497;80;21748;-76
2021/07/28 08:08:04;;;;;;;22.05;9.20;;;;;;;31.30;48.39;99924.89;1761415;80;21107;-77
2021/07/28 08:10:33;;;;;;;17.95;8.68;;;;;;;31.31;48.33;99921.11;1762122;80;21048;-76
2021/07/28 08:13:00;;;;;;;18.87;9.45;;;;;;;31.29;48.64;99924.55;1768810;80;21075;-79
2021/07/28 08:15:28;;;;;;;17.35;9.68;;;;;;;31.24;49.03;99924.30;1762149;80;21025;-75
2021/07/28 08:17:55;;;;;;;21.70;9.33;;;;;;;30.94;49.52;99919.02;1764190;80;21514;-77
2021/07/28 08:20:23;;;;;;;17.87;8.28;;;;;;;30.94;49.52;99919.02;1770742;80;21208;-77
2021/07/28 08:22:50;;;;;;;21.10;10.48;;;;;;;31.20;49.32;99922.52;1761490;80;21500;-77
2021/07/28 08:25:17;;;;;;;18.95;9.78;;;;;;;31.20;49.32;99922.52;1779229;80;21521;-76
2021/07/28 08:27:46;;;;;;;18.37;9.25;;;;;;;31.30;49.11;99920.81;1784489;80;22025;-76
2021/07/28 08:30:13;;;;;;;21.48;10.00;;;;;;;31.68;47.73;99921.34;1783916;80;21016;-76
2021/07/28 08:32:42;;;;;;;17.07;9.25;;;;;;;32.04;47.29;99914.84;1784584;80;21709;-78
2021/07/28 08:35:09;;;;;;;16.37;9.35;;;;;;;32.33;46.57;99911.53;1783743;80;21053;-76
2021/07/28 08:37:40;;;;;;;18.00;9.33;;;;;;;32.69;45.80;99915.31;1784364;80;21209;-77
2021/07/28 08:40:09;;;;;;;;;;;;;;;32.52;45.68;99907.22;1786853;80;21040;-76
2021/07/28 08:42:37;;;;;;;17.10;9.03;;;;;;;32.04;46.68;99911.30;1766961;80;20228;-76
2021/07/28 08:45:06;;;;;;;20.30;9.48;;;;;;;31.70;47.82;99912.95;1764167;80;21083;-77
2021/07/28 08:47:35;;;;;;;24.52;9.83;;;;;;;31.72;47.48;99905.42;1769718;80;21579;-76
2021/07/28 08:50:10;;;;;;;22.55;8.58;;;;;;;31.83;46.56;99902.14;1765616;80;21068;-77
2021/07/28 08:52:38;;;;;;;16.27;8.83;;;;;;;31.93;45.88;99897.19;1772064;80;21033;-76
2021/07/28 08:55:06;;;;;;;20.68;9.63;;;;;;;32.19;45.12;99888.31;1766721;80;21059;-76
2021/07/28 08:57:34;;;;;;;25.10;9.95;;;;;;;32.31;45.33;99895.37;1783191;80;21131;-76
2021/07/28 09:00:02;;;;;;;20.88;9.63;;;;;;;32.42;43.91;99891.73;1775032;80;21551;-76
2021/07/28 09:02:29;;;;;;;21.50;10.10;;;;;;;32.63;44.11;99890.27;1783301;80;21016;-75
2021/07/28 09:04:56;;;;;;;15.93;9.25;;;;;;;32.89;43.08;99888.62;1768930;80;21132;-76
2021/07/28 09:07:23;;;;;;;17.55;9.25;;;;;;;33.01;43.74;99889.16;1784138;80;21020;-76
2021/07/28 09:09:53;;;;;;;14.87;8.58;;;;;;;32.85;43.43;99887.34;1769784;80;21610;-76
2021/07/28 09:12:23;;;;;;;20.97;9.35;;;;;;;32.83;43.44;99884.85;1752635;81;21189;-75
2021/07/28 09:14:53;;;;;;;21.68;10.30;;;;;;;32.96;43.57;99878.55;1752104;81;21035;-76
2021/07/28 09:17:23;;;;;;;17.23;8.50;;;;;;;33.23;43.02;99884.34;1773156;80;21037;-76
2021/07/28 09:19:49;;;;;;;17.80;9.48;;;;;;;33.34;43.26;99882.05;1783790;80;21484;-76
2021/07/28 09:22:19;;;;;;;23.75;9.58;;;;;;;33.76;42.07;99874.43;1784152;80;25665;-76
2021/07/28 09:27:52;;;;;;;18.35;9.80;;;;;;;34.60;38.65;99870.70;1799501;79;22879;-76
2021/07/28 09:30:27;;;;;;;17.07;8.80;;;;;;;34.41;39.74;99871.65;1754359;79;21715;-77
2021/07/28 09:33:10;;;;;;;19.45;9.63;;;;;;;34.21;39.13;99870.38;1728328;81;21044;-77
2021/07/28 09:36:14;;;;;;;23.38;9.95;;;;;;;34.56;38.68;99868.63;1729946;81;21039;-75
2021/07/28 09:38:45;;;;;;;16.35;8.90;;;;;;;35.06;38.86;99860.48;1728121;82;21053;-76
2021/07/28 09:41:28;;;;;;;20.20;9.78;;;;;;;35.52;38.52;99861.95;1727307;82;21151;-75
2021/07/28 09:44:00;;;;;;;22.73;9.55;;;;;;;35.89;37.50;99855.14;1733867;81;21544;-75
2021/07/28 09:46:32;;;;;;;18.62;8.53;;;;;;;36.04;36.69;99854.22;1750168;79;21803;-76
2021/07/28 09:49:02;;;;;;;17.45;8.75;;;;;;;35.91;35.92;99851.64;1746642;79;21105;-76
2021/07/28 09:51:36;;;;;;;15.13;7.90;;;;;;;35.88;33.49;99852.11;1734782;79;21135;-75
2021/07/28 09:54:10;;;;;;;16.48;8.53;;;;;;;35.97;33.82;99841.69;1761164;81;21183;-75
2021/07/28 09:56:47;;;;;;;15.53;8.30;;;;;;;36.21;35.45;99834.42;1752332;81;21578;-75
2021/07/28 09:59:15;;;;;;;22.65;9.10;;;;;;;36.33;35.38;99840.81;1758778;81;21141;-81
2021/07/28 10:01:45;;;;;;;13.22;7.37;;;;;;;36.45;35.52;99838.94;1737864;81;21083;-82
2021/07/28 10:04:13;;;;;;;;;;;;;;;36.52;33.39;99839.66;1730200;81;21067;-82
2021/07/28 10:06:43;;;;;;;16.15;7.87;;;;;;;36.60;32.95;99840.43;1726487;81;20162;-80
2021/07/28 10:09:14;;;;;;;;;;;;;;;36.63;33.17;99838.06;1727340;82;21089;-81
2021/07/28 10:11:47;;;;;;;15.93;7.10;;;;;;;36.89;32.12;99839.53;1735202;81;21919;-82
2021/07/28 10:14:19;;;;;;;12.37;7.58;;;;;;;37.15;31.06;99829.20;1737266;81;21128;-80
2021/07/28 10:16:48;;;;;;;12.37;6.95;;;;;;;36.90;31.86;99827.50;1749177;81;21099;-80
2021/07/28 10:19:17;;;;;;;11.97;6.90;;;;;;;36.55;30.42;99829.59;1759754;80;21092;-80
2021/07/28 10:21:46;;;;;;;13.47;6.40;;;;;;;36.63;31.83;99827.09;1724810;82;21611;-79
2021/07/28 10:24:14;;;;;;;11.85;5.58;;;;;;;36.97;29.95;99827.36;1725949;82;21954;-81
2021/07/28 10:26:48;;;;;;;14.68;6.55;;;;;;;37.30;29.69;99818.58;1695831;84;21199;-81
2021/07/28 10:29:15;;;;;;;13.83;6.87;;;;;;;37.66;29.54;99813.88;1716121;82;21116;-83
2021/07/28 10:31:49;;;;;;;11.18;6.40;;;;;;;37.90;29.56;99813.83;1689144;84;21096;-83
2021/07/28 10:34:25;;;;;;;14.43;7.20;;;;;;;37.70;29.19;99813.69;1694285;84;21093;-81
2021/07/28 10:36:55;;;;;;;15.63;6.87;;;;;;;37.42;30.07;99823.22;1677580;84;22134;-81
2021/07/28 10:39:47;;;;;;;14.80;7.80;;;;;;;37.19;30.79;99826.82;1686087;83;22342;-80
2021/07/28 10:42:33;;;;;;;14.03;7.40;;;;;;;36.95;30.78;99821.30;1678582;84;20985;-79
2021/07/28 10:45:07;;;;;;;14.20;6.83;;;;;;;36.80;30.07;99819.55;1677013;84;21124;-79
2021/07/28 10:47:43;;;;;;;14.05;7.85;;;;;;;36.62;30.35;99817.72;1676272;84;21397;-80
2021/07/28 10:50:30;;;;;;;22.25;7.87;;;;;;;36.41;30.88;99815.78;1672232;85;21535;-81
2021/07/28 10:53:02;;;;;;;19.85;8.20;;;;;;;36.42;31.80;99817.47;1658800;84;21072;-77
2021/07/28 10:55:38;;;;;;;13.22;7.75;;;;;;;36.46;31.81;99819.20;1713381;83;21116;-78
2021/07/28 10:58:14;;;;;;;15.43;7.25;;;;;;;36.40;32.96;99811.39;1714619;81;21218;-77
2021/07/28 11:00:48;;;;;;;11.53;7.42;;;;;;;36.40;31.94;99808.64;1708130;83;21127;-79
2021/07/28 11:03:20;;;;;;;11.03;6.60;;;;;;;36.50;31.47;99807.52;1668666;83;21117;-77
2021/07/28 11:05:56;;;;;;;13.45;7.12;;;;;;;36.59;30.34;99805.86;1653792;84;21076;-77
2021/07/28 11:08:24;;;;;;;11.40;6.83;;;;;;;36.45;30.72;99806.03;1655389;84;21109;-78
2021/07/28 11:11:01;;;;;;;11.10;7.22;;;;;;;36.57;30.33;99799.73;1624812;84;21077;-77
2021/07/28 11:13:31;;;;;;;17.60;6.70;;;;;;;36.88;30.13;99798.59;1685875;84;21085;-80
2021/07/28 11:16:06;;;;;;;13.75;7.37;;;;;;;36.91;30.42;99795.41;1725690;82;21231;-80
2021/07/28 11:18:43;;;;;;;12.75;6.87;;;;;;;36.67;31.66;99786.30;1714136;82;21084;-77
2021/07/28 11:21:21;;;;;;;13.15;7.60;;;;;;;36.47;31.59;99776.47;1669615;84;21111;-77
2021/07/28 11:24:00;;;;;;;15.43;6.90;;;;;;;36.48;32.14;99783.61;1678301;84;21113;-80
2021/07/28 11:26:38;;;;;;;14.23;7.35;;;;;;;36.73;31.50;99794.96;1688776;83;21148;-79
2021/07/28 11:29:11;;;;;;;12.75;7.62;;;;;;;36.56;31.07;99796.16;1674055;84;21155;-79
2021/07/28 11:31:43;;;;;;;17.37;7.20;;;;;;;36.21;30.92;99790.03;1717829;83;21058;-79
2021/07/28 11:34:19;;;;;;;18.80;7.45;;;;;;;35.78;31.81;99799.78;1698497;83;21050;-80